KETN

Eastland Municipal Airport

Eastland, Texas, USA
METAR KETN 182335Z AUTO 18007KT 10SM CLR 36/17 A2989 RMK AO2 LTG DSNT N AND NE T03580174
Observed Flight Rules
Aug-18 @ 23:35 UTC (11 minutes ago) Visual Flight Rules
Wind Visibility Clouds
180° at 7 knots 10 miles
  • Clear skies
Temperatures Readings
Current 36°C / 97°F
Dewpoint 17°C / 63°F
Humidity 32%
Altimeter 29.89" Hg
Pressure 1012 hPa
Elevation 446
METAR KETN 182335Z AUTO 18007KT 10SM CLR 36/17 A2989 RMK AO2 LTG DSNT N AND NE T03580174
Observed Flight Rules
Aug-18 @ 23:35 UTC
(11 minutes ago)
VFR
Wind Visibility
180° at 7 knots 10 miles
Clouds
  • Clear skies
Temperature Dewpoint
36°C / 97°F 17°C / 63°F
Humidity Altimeter Pressure
32% 29.89" Hg 1012 hPa